sensor_id;sensor_type;location;lat;lon;timestamp;temperature;humidity
10231;DHT22;62604;49.432;8.680;2024-02-26T00:02:06;9.70;99.90
10231;DHT22;62604;49.432;8.680;2024-02-26T00:04:38;9.80;99.90
10231;DHT22;62604;49.432;8.680;2024-02-26T00:07:07;9.70;99.90
10231;DHT22;62604;49.432;8.680;2024-02-26T00:09:38;9.70;99.90
10231;DHT22;62604;49.432;8.680;2024-02-26T00:12:08;9.70;99.90
10231;DHT22;62604;49.432;8.680;2024-02-26T00:14:39;9.70;99.90
10231;DHT22;62604;49.432;8.680;2024-02-26T00:17:08;9.70;99.90
10231;DHT22;62604;49.432;8.680;2024-02-26T00:19:41;9.70;99.90
10231;DHT22;62604;49.432;8.680;2024-02-26T00:22:13;9.70;99.90
10231;DHT22;62604;49.432;8.680;2024-02-26T00:24:44;9.70;99.90
10231;DHT22;62604;49.432;8.680;2024-02-26T00:27:13;9.70;99.90
10231;DHT22;62604;49.432;8.680;2024-02-26T00:29:41;9.70;99.90
10231;DHT22;62604;49.432;8.680;2024-02-26T00:32:16;9.70;99.90
10231;DHT22;62604;49.432;8.680;2024-02-26T00:34:51;9.70;99.90
10231;DHT22;62604;49.432;8.680;2024-02-26T00:37:34;9.70;99.90
10231;DHT22;62604;49.432;8.680;2024-02-26T00:40:01;9.70;99.90
10231;DHT22;62604;49.432;8.680;2024-02-26T00:42:31;9.70;99.90
10231;DHT22;62604;49.432;8.680;2024-02-26T00:45:03;9.70;99.90
10231;DHT22;62604;49.432;8.680;2024-02-26T00:47:34;9.70;99.90
10231;DHT22;62604;49.432;8.680;2024-02-26T00:50:06;9.70;99.90
10231;DHT22;62604;49.432;8.680;2024-02-26T00:52:40;9.80;99.90
10231;DHT22;62604;49.432;8.680;2024-02-26T00:55:08;9.80;99.90
10231;DHT22;62604;49.432;8.680;2024-02-26T00:57:37;9.80;99.90
10231;DHT22;62604;49.432;8.680;2024-02-26T01:00:08;9.80;99.90
10231;DHT22;62604;49.432;8.680;2024-02-26T01:02:38;9.70;99.90
10231;DHT22;62604;49.432;8.680;2024-02-26T01:05:09;9.70;99.90
10231;DHT22;62604;49.432;8.680;2024-02-26T01:07:42;9.70;99.90
10231;DHT22;62604;49.432;8.680;2024-02-26T01:10:12;9.70;99.90
10231;DHT22;62604;49.432;8.680;2024-02-26T01:12:40;9.70;99.90
10231;DHT22;62604;49.432;8.680;2024-02-26T01:15:09;9.70;99.90
10231;DHT22;62604;49.432;8.680;2024-02-26T01:17:36;9.70;99.90
10231;DHT22;62604;49.432;8.680;2024-02-26T01:20:05;9.70;99.90
10231;DHT22;62604;49.432;8.680;2024-02-26T01:22:34;9.70;99.90
10231;DHT22;62604;49.432;8.680;2024-02-26T01:25:06;9.70;99.90
10231;DHT22;62604;49.432;8.680;2024-02-26T01:27:35;9.70;99.90
10231;DHT22;62604;49.432;8.680;2024-02-26T01:30:03;9.70;99.90
10231;DHT22;62604;49.432;8.680;2024-02-26T01:32:31;9.70;99.90
10231;DHT22;62604;49.432;8.680;2024-02-26T01:34:59;9.80;99.90
10231;DHT22;62604;49.432;8.680;2024-02-26T01:37:29;9.90;99.90
10231;DHT22;62604;49.432;8.680;2024-02-26T01:39:56;10.00;99.90
10231;DHT22;62604;49.432;8.680;2024-02-26T01:42:38;10.10;99.90
10231;DHT22;62604;49.432;8.680;2024-02-26T01:45:14;10.20;99.90
10231;DHT22;62604;49.432;8.680;2024-02-26T01:47:47;10.20;99.90
10231;DHT22;62604;49.432;8.680;2024-02-26T01:50:16;10.20;99.90
10231;DHT22;62604;49.432;8.680;2024-02-26T01:52:43;10.20;99.90
10231;DHT22;62604;49.432;8.680;2024-02-26T01:55:12;10.20;99.90
10231;DHT22;62604;49.432;8.680;2024-02-26T01:57:43;10.20;99.90
10231;DHT22;62604;49.432;8.680;2024-02-26T02:00:14;10.30;99.90
10231;DHT22;62604;49.432;8.680;2024-02-26T02:02:44;10.20;99.90
10231;DHT22;62604;49.432;8.680;2024-02-26T02:05:14;10.20;99.90
10231;DHT22;62604;49.432;8.680;2024-02-26T02:07:43;10.20;99.90
10231;DHT22;62604;49.432;8.680;2024-02-26T02:10:11;10.10;99.90
10231;DHT22;62604;49.432;8.680;2024-02-26T02:12:38;10.10;99.90
10231;DHT22;62604;49.432;8.680;2024-02-26T02:15:08;10.00;99.90
10231;DHT22;62604;49.432;8.680;2024-02-26T02:17:38;10.00;99.90
10231;DHT22;62604;49.432;8.680;2024-02-26T02:20:09;10.00;99.90
10231;DHT22;62604;49.432;8.680;2024-02-26T02:22:38;9.90;99.90
10231;DHT22;62604;49.432;8.680;2024-02-26T02:25:06;9.90;99.90
10231;DHT22;62604;49.432;8.680;2024-02-26T02:27:35;9.90;99.90
10231;DHT22;62604;49.432;8.680;2024-02-26T02:30:04;9.90;99.90
10231;DHT22;62604;49.432;8.680;2024-02-26T02:32:33;9.90;99.90
10231;DHT22;62604;49.432;8.680;2024-02-26T02:35:00;9.80;99.90
10231;DHT22;62604;49.432;8.680;2024-02-26T02:37:27;9.80;99.90
10231;DHT22;62604;49.432;8.680;2024-02-26T02:39:56;9.80;99.90
10231;DHT22;62604;49.432;8.680;2024-02-26T02:42:26;9.80;99.90
10231;DHT22;62604;49.432;8.680;2024-02-26T02:44:55;9.80;99.90
10231;DHT22;62604;49.432;8.680;2024-02-26T02:47:24;9.80;99.90
10231;DHT22;62604;49.432;8.680;2024-02-26T02:49:54;9.80;99.90
10231;DHT22;62604;49.432;8.680;2024-02-26T02:52:22;9.80;99.90
10231;DHT22;62604;49.432;8.680;2024-02-26T02:54:50;9.80;99.90
10231;DHT22;62604;49.432;8.680;2024-02-26T02:57:23;9.70;99.90
10231;DHT22;62604;49.432;8.680;2024-02-26T02:59:51;9.70;99.90
10231;DHT22;62604;49.432;8.680;2024-02-26T03:02:18;9.70;99.90
10231;DHT22;62604;49.432;8.680;2024-02-26T03:04:45;9.60;99.90
10231;DHT22;62604;49.432;8.680;2024-02-26T03:07:12;9.60;99.90
10231;DHT22;62604;49.432;8.680;2024-02-26T03:09:39;9.50;99.90
10231;DHT22;62604;49.432;8.680;2024-02-26T03:12:07;9.40;99.90
10231;DHT22;62604;49.432;8.680;2024-02-26T03:14:36;9.40;99.90
10231;DHT22;62604;49.432;8.680;2024-02-26T03:17:03;9.30;99.90
10231;DHT22;62604;49.432;8.680;2024-02-26T03:19:30;9.30;99.90
10231;DHT22;62604;49.432;8.680;2024-02-26T03:21:57;9.20;99.90
10231;DHT22;62604;49.432;8.680;2024-02-26T03:24:25;9.20;99.90
10231;DHT22;62604;49.432;8.680;2024-02-26T03:26:52;9.20;99.90
10231;DHT22;62604;49.432;8.680;2024-02-26T03:29:20;9.10;99.90
10231;DHT22;62604;49.432;8.680;2024-02-26T03:31:49;9.10;99.90
10231;DHT22;62604;49.432;8.680;2024-02-26T03:34:17;9.00;99.90
10231;DHT22;62604;49.432;8.680;2024-02-26T03:36:45;9.00;99.90
10231;DHT22;62604;49.432;8.680;2024-02-26T03:39:12;8.90;99.90
10231;DHT22;62604;49.432;8.680;2024-02-26T03:41:43;8.90;1.00
10231;DHT22;62604;49.432;8.680;2024-02-26T03:44:12;8.90;1.00
10231;DHT22;62604;49.432;8.680;2024-02-26T03:46:44;8.80;1.00
10231;DHT22;62604;49.432;8.680;2024-02-26T03:49:14;8.70;1.00
10231;DHT22;62604;49.432;8.680;2024-02-26T03:51:42;8.60;1.00
10231;DHT22;62604;49.432;8.680;2024-02-26T03:54:12;8.50;1.00
10231;DHT22;62604;49.432;8.680;2024-02-26T03:56:40;8.40;1.00
10231;DHT22;62604;49.432;8.680;2024-02-26T03:59:07;8.30;1.00
10231;DHT22;62604;49.432;8.680;2024-02-26T04:01:34;8.10;1.00
10231;DHT22;62604;49.432;8.680;2024-02-26T04:04:02;8.00;1.00
10231;DHT22;62604;49.432;8.680;2024-02-26T04:06:30;7.90;1.00
10231;DHT22;62604;49.432;8.680;2024-02-26T04:08:58;7.80;1.00
10231;DHT22;62604;49.432;8.680;2024-02-26T04:11:25;7.80;1.00
10231;DHT22;62604;49.432;8.680;2024-02-26T04:13:52;7.70;1.00
10231;DHT22;62604;49.432;8.680;2024-02-26T04:16:19;7.70;1.00
10231;DHT22;62604;49.432;8.680;2024-02-26T04:18:47;7.70;1.00
10231;DHT22;62604;49.432;8.680;2024-02-26T04:21:14;7.60;1.00
10231;DHT22;62604;49.432;8.680;2024-02-26T04:23:44;7.70;1.00
10231;DHT22;62604;49.432;8.680;2024-02-26T04:26:15;7.70;1.00
10231;DHT22;62604;49.432;8.680;2024-02-26T04:28:42;7.70;1.00
10231;DHT22;62604;49.432;8.680;2024-02-26T04:31:10;7.70;1.00
10231;DHT22;62604;49.432;8.680;2024-02-26T04:33:37;7.70;1.00
10231;DHT22;62604;49.432;8.680;2024-02-26T04:36:04;7.80;1.00
10231;DHT22;62604;49.432;8.680;2024-02-26T04:38:32;7.80;1.00
10231;DHT22;62604;49.432;8.680;2024-02-26T04:41:01;7.80;1.00
10231;DHT22;62604;49.432;8.680;2024-02-26T04:43:28;7.80;1.00
10231;DHT22;62604;49.432;8.680;2024-02-26T04:45:55;7.80;1.00
10231;DHT22;62604;49.432;8.680;2024-02-26T04:48:23;7.80;1.00
10231;DHT22;62604;49.432;8.680;2024-02-26T04:50:50;7.80;1.00
10231;DHT22;62604;49.432;8.680;2024-02-26T04:53:20;7.80;1.00
10231;DHT22;62604;49.432;8.680;2024-02-26T04:55:51;7.80;1.00
10231;DHT22;62604;49.432;8.680;2024-02-26T04:58:22;7.70;1.00
10231;DHT22;62604;49.432;8.680;2024-02-26T05:00:50;7.70;1.00
10231;DHT22;62604;49.432;8.680;2024-02-26T05:03:17;7.70;1.00
10231;DHT22;62604;49.432;8.680;2024-02-26T05:05:50;7.70;1.00
10231;DHT22;62604;49.432;8.680;2024-02-26T05:08:18;7.70;1.00
10231;DHT22;62604;49.432;8.680;2024-02-26T05:10:47;7.70;1.00
10231;DHT22;62604;49.432;8.680;2024-02-26T05:13:14;7.60;1.00
10231;DHT22;62604;49.432;8.680;2024-02-26T05:15:56;7.60;1.00
10231;DHT22;62604;49.432;8.680;2024-02-26T05:18:24;7.60;1.00
10231;DHT22;62604;49.432;8.680;2024-02-26T05:20:51;7.70;1.00
10231;DHT22;62604;49.432;8.680;2024-02-26T05:23:20;7.70;1.00
10231;DHT22;62604;49.432;8.680;2024-02-26T05:25:48;7.70;1.00
10231;DHT22;62604;49.432;8.680;2024-02-26T05:28:17;7.70;1.00
10231;DHT22;62604;49.432;8.680;2024-02-26T05:30:51;7.70;1.00
10231;DHT22;62604;49.432;8.680;2024-02-26T05:33:20;7.70;1.00
10231;DHT22;62604;49.432;8.680;2024-02-26T05:35:48;7.70;1.00
10231;DHT22;62604;49.432;8.680;2024-02-26T05:38:17;7.70;1.00
10231;DHT22;62604;49.432;8.680;2024-02-26T05:40:46;7.70;1.00
10231;DHT22;62604;49.432;8.680;2024-02-26T05:43:14;7.60;1.00
10231;DHT22;62604;49.432;8.680;2024-02-26T05:45:43;7.60;1.00
10231;DHT22;62604;49.432;8.680;2024-02-26T05:48:13;7.60;12.40
10231;DHT22;62604;49.432;8.680;2024-02-26T05:50:40;7.60;45.50
10231;DHT22;62604;49.432;8.680;2024-02-26T05:53:07;7.60;99.90
10231;DHT22;62604;49.432;8.680;2024-02-26T05:55:37;7.60;99.90
10231;DHT22;62604;49.432;8.680;2024-02-26T05:58:18;7.60;99.90
10231;DHT22;62604;49.432;8.680;2024-02-26T06:00:54;7.60;99.90
10231;DHT22;62604;49.432;8.680;2024-02-26T06:03:31;7.50;99.90
10231;DHT22;62604;49.432;8.680;2024-02-26T06:05:58;7.50;99.90
10231;DHT22;62604;49.432;8.680;2024-02-26T06:08:28;7.50;99.90
10231;DHT22;62604;49.432;8.680;2024-02-26T06:10:54;7.50;99.90
10231;DHT22;62604;49.432;8.680;2024-02-26T06:13:21;7.50;99.90
10231;DHT22;62604;49.432;8.680;2024-02-26T06:15:48;7.50;99.90
10231;DHT22;62604;49.432;8.680;2024-02-26T06:18:16;7.50;99.90
10231;DHT22;62604;49.432;8.680;2024-02-26T06:20:44;7.50;99.90
10231;DHT22;62604;49.432;8.680;2024-02-26T06:23:13;7.50;99.90
10231;DHT22;62604;49.432;8.680;2024-02-26T06:25:40;7.50;99.90
10231;DHT22;62604;49.432;8.680;2024-02-26T06:28:08;7.50;99.90
10231;DHT22;62604;49.432;8.680;2024-02-26T06:30:35;7.50;99.90
10231;DHT22;62604;49.432;8.680;2024-02-26T06:33:02;7.50;99.90
10231;DHT22;62604;49.432;8.680;2024-02-26T06:35:32;7.50;99.90
10231;DHT22;62604;49.432;8.680;2024-02-26T06:38:02;7.50;99.90
10231;DHT22;62604;49.432;8.680;2024-02-26T06:40:30;7.60;99.90
10231;DHT22;62604;49.432;8.680;2024-02-26T06:42:58;7.60;99.90
10231;DHT22;62604;49.432;8.680;2024-02-26T06:45:25;7.60;99.90
10231;DHT22;62604;49.432;8.680;2024-02-26T06:47:52;7.70;41.10
10231;DHT22;62604;49.432;8.680;2024-02-26T06:50:19;7.80;1.00
10231;DHT22;62604;49.432;8.680;2024-02-26T06:52:46;7.90;1.00
10231;DHT22;62604;49.432;8.680;2024-02-26T06:55:15;7.90;1.00
10231;DHT22;62604;49.432;8.680;2024-02-26T06:57:42;8.00;1.00
10231;DHT22;62604;49.432;8.680;2024-02-26T07:00:11;8.00;1.00
10231;DHT22;62604;49.432;8.680;2024-02-26T07:02:41;8.10;1.00
10231;DHT22;62604;49.432;8.680;2024-02-26T07:05:09;8.10;1.00
10231;DHT22;62604;49.432;8.680;2024-02-26T07:07:36;8.10;1.00
10231;DHT22;62604;49.432;8.680;2024-02-26T07:10:05;8.10;1.00
10231;DHT22;62604;49.432;8.680;2024-02-26T07:12:34;8.20;1.00
10231;DHT22;62604;49.432;8.680;2024-02-26T07:15:04;8.30;1.00
10231;DHT22;62604;49.432;8.680;2024-02-26T07:17:35;8.40;1.00
10231;DHT22;62604;49.432;8.680;2024-02-26T07:20:04;8.40;1.00
10231;DHT22;62604;49.432;8.680;2024-02-26T07:22:39;8.40;1.00
10231;DHT22;62604;49.432;8.680;2024-02-26T07:25:08;8.40;1.00
10231;DHT22;62604;49.432;8.680;2024-02-26T07:27:44;8.40;1.00
10231;DHT22;62604;49.432;8.680;2024-02-26T07:30:12;8.40;1.00
10231;DHT22;62604;49.432;8.680;2024-02-26T07:32:42;8.30;1.00
10231;DHT22;62604;49.432;8.680;2024-02-26T07:35:11;8.30;1.00
10231;DHT22;62604;49.432;8.680;2024-02-26T07:37:38;8.30;1.00
10231;DHT22;62604;49.432;8.680;2024-02-26T07:40:06;8.20;1.00
10231;DHT22;62604;49.432;8.680;2024-02-26T07:42:34;8.20;1.00
10231;DHT22;62604;49.432;8.680;2024-02-26T07:45:05;8.20;1.00
10231;DHT22;62604;49.432;8.680;2024-02-26T07:47:32;8.10;1.00
10231;DHT22;62604;49.432;8.680;2024-02-26T07:50:00;8.10;1.00
10231;DHT22;62604;49.432;8.680;2024-02-26T07:52:27;8.10;1.00
10231;DHT22;62604;49.432;8.680;2024-02-26T07:54:55;8.10;1.00
10231;DHT22;62604;49.432;8.680;2024-02-26T07:57:22;8.10;1.00
10231;DHT22;62604;49.432;8.680;2024-02-26T07:59:49;8.20;1.00
10231;DHT22;62604;49.432;8.680;2024-02-26T08:02:18;8.20;1.00
10231;DHT22;62604;49.432;8.680;2024-02-26T08:04:45;8.20;1.00
10231;DHT22;62604;49.432;8.680;2024-02-26T08:07:12;8.30;1.00
10231;DHT22;62604;49.432;8.680;2024-02-26T08:09:43;8.30;1.00
10231;DHT22;62604;49.432;8.680;2024-02-26T08:12:13;8.40;1.00
10231;DHT22;62604;49.432;8.680;2024-02-26T08:14:42;8.40;1.00
10231;DHT22;62604;49.432;8.680;2024-02-26T08:17:13;8.40;1.00
10231;DHT22;62604;49.432;8.680;2024-02-26T08:19:42;8.40;1.00
10231;DHT22;62604;49.432;8.680;2024-02-26T08:22:09;8.50;1.00
10231;DHT22;62604;49.432;8.680;2024-02-26T08:24:42;8.50;1.00
10231;DHT22;62604;49.432;8.680;2024-02-26T08:27:09;8.50;1.00
10231;DHT22;62604;49.432;8.680;2024-02-26T08:29:36;8.60;1.00
10231;DHT22;62604;49.432;8.680;2024-02-26T08:32:05;8.70;1.00
10231;DHT22;62604;49.432;8.680;2024-02-26T08:34:33;8.70;1.00
10231;DHT22;62604;49.432;8.680;2024-02-26T08:37:01;8.80;1.00
10231;DHT22;62604;49.432;8.680;2024-02-26T08:39:28;8.90;1.00
10231;DHT22;62604;49.432;8.680;2024-02-26T08:41:55;8.90;1.00
10231;DHT22;62604;49.432;8.680;2024-02-26T08:44:22;9.00;1.00
10231;DHT22;62604;49.432;8.680;2024-02-26T08:46:50;9.10;1.00
10231;DHT22;62604;49.432;8.680;2024-02-26T08:49:17;9.20;1.00
10231;DHT22;62604;49.432;8.680;2024-02-26T08:51:46;9.20;1.00
10231;DHT22;62604;49.432;8.680;2024-02-26T08:54:14;9.20;1.00
10231;DHT22;62604;49.432;8.680;2024-02-26T08:56:41;9.20;1.00
10231;DHT22;62604;49.432;8.680;2024-02-26T08:59:09;9.20;1.00
10231;DHT22;62604;49.432;8.680;2024-02-26T09:01:36;9.30;1.00
10231;DHT22;62604;49.432;8.680;2024-02-26T09:04:03;9.30;1.00
10231;DHT22;62604;49.432;8.680;2024-02-26T09:06:30;9.30;1.00
10231;DHT22;62604;49.432;8.680;2024-02-26T09:08:57;9.30;1.00
10231;DHT22;62604;49.432;8.680;2024-02-26T09:11:26;9.30;1.00
10231;DHT22;62604;49.432;8.680;2024-02-26T09:13:53;9.30;1.00
10231;DHT22;62604;49.432;8.680;2024-02-26T09:16:21;9.30;1.00
10231;DHT22;62604;49.432;8.680;2024-02-26T09:18:48;9.40;1.00
10231;DHT22;62604;49.432;8.680;2024-02-26T09:21:15;9.40;1.00
10231;DHT22;62604;49.432;8.680;2024-02-26T09:23:48;9.40;1.00
10231;DHT22;62604;49.432;8.680;2024-02-26T09:26:15;9.40;1.00
10231;DHT22;62604;49.432;8.680;2024-02-26T09:28:44;9.40;1.00
10231;DHT22;62604;49.432;8.680;2024-02-26T09:31:11;9.40;1.00
10231;DHT22;62604;49.432;8.680;2024-02-26T09:33:38;9.40;1.00
10231;DHT22;62604;49.432;8.680;2024-02-26T09:36:07;9.40;1.00
10231;DHT22;62604;49.432;8.680;2024-02-26T09:38:36;9.40;1.00
10231;DHT22;62604;49.432;8.680;2024-02-26T09:41:04;9.40;1.00
10231;DHT22;62604;49.432;8.680;2024-02-26T09:43:35;9.40;1.00
10231;DHT22;62604;49.432;8.680;2024-02-26T09:46:11;9.40;1.00
10231;DHT22;62604;49.432;8.680;2024-02-26T09:48:44;9.40;1.00
10231;DHT22;62604;49.432;8.680;2024-02-26T09:51:12;9.30;1.00
10231;DHT22;62604;49.432;8.680;2024-02-26T09:53:40;9.40;1.00
10231;DHT22;62604;49.432;8.680;2024-02-26T09:56:10;9.40;1.00
10231;DHT22;62604;49.432;8.680;2024-02-26T09:58:41;9.40;1.00
10231;DHT22;62604;49.432;8.680;2024-02-26T10:01:18;9.40;1.00
10231;DHT22;62604;49.432;8.680;2024-02-26T10:03:48;9.40;1.00
10231;DHT22;62604;49.432;8.680;2024-02-26T10:06:16;9.40;1.00
10231;DHT22;62604;49.432;8.680;2024-02-26T10:08:44;9.40;1.00
10231;DHT22;62604;49.432;8.680;2024-02-26T10:11:16;9.50;1.00
10231;DHT22;62604;49.432;8.680;2024-02-26T10:13:43;9.60;1.00
10231;DHT22;62604;49.432;8.680;2024-02-26T10:16:12;9.90;1.00
10231;DHT22;62604;49.432;8.680;2024-02-26T10:18:51;10.20;1.00
10231;DHT22;62604;49.432;8.680;2024-02-26T10:21:19;10.70;1.00
10231;DHT22;62604;49.432;8.680;2024-02-26T10:23:46;11.20;1.00
10231;DHT22;62604;49.432;8.680;2024-02-26T10:26:15;11.40;1.00
10231;DHT22;62604;49.432;8.680;2024-02-26T10:28:42;11.50;1.00
10231;DHT22;62604;49.432;8.680;2024-02-26T10:31:16;11.60;1.00
10231;DHT22;62604;49.432;8.680;2024-02-26T10:33:43;11.60;1.00
10231;DHT22;62604;49.432;8.680;2024-02-26T10:36:12;11.70;1.00
10231;DHT22;62604;49.432;8.680;2024-02-26T10:38:39;11.80;1.00
10231;DHT22;62604;49.432;8.680;2024-02-26T10:41:06;11.80;1.00
10231;DHT22;62604;49.432;8.680;2024-02-26T10:43:35;12.00;1.00
10231;DHT22;62604;49.432;8.680;2024-02-26T10:46:03;12.30;1.00
10231;DHT22;62604;49.432;8.680;2024-02-26T10:48:30;12.60;1.00
10231;DHT22;62604;49.432;8.680;2024-02-26T10:50:57;12.90;1.00
10231;DHT22;62604;49.432;8.680;2024-02-26T10:53:28;13.10;1.00
10231;DHT22;62604;49.432;8.680;2024-02-26T10:56:00;13.30;1.00
10231;DHT22;62604;49.432;8.680;2024-02-26T10:58:29;13.30;1.00
10231;DHT22;62604;49.432;8.680;2024-02-26T11:01:01;13.30;1.00
10231;DHT22;62604;49.432;8.680;2024-02-26T11:03:28;13.30;1.00
10231;DHT22;62604;49.432;8.680;2024-02-26T11:05:58;13.20;1.00
10231;DHT22;62604;49.432;8.680;2024-02-26T11:08:28;13.30;1.00
10231;DHT22;62604;49.432;8.680;2024-02-26T11:10:59;13.30;1.00
10231;DHT22;62604;49.432;8.680;2024-02-26T11:13:28;13.40;1.00
10231;DHT22;62604;49.432;8.680;2024-02-26T11:15:58;13.40;1.00
10231;DHT22;62604;49.432;8.680;2024-02-26T11:18:28;13.40;1.00
10231;DHT22;62604;49.432;8.680;2024-02-26T11:20:58;13.50;1.00
10231;DHT22;62604;49.432;8.680;2024-02-26T11:23:28;13.60;1.00
10231;DHT22;62604;49.432;8.680;2024-02-26T11:25:57;13.80;1.00
10231;DHT22;62604;49.432;8.680;2024-02-26T11:28:27;14.00;1.00
10231;DHT22;62604;49.432;8.680;2024-02-26T11:30:58;14.20;1.00
10231;DHT22;62604;49.432;8.680;2024-02-26T11:33:26;14.50;1.00
10231;DHT22;62604;49.432;8.680;2024-02-26T11:35:53;14.60;1.00
10231;DHT22;62604;49.432;8.680;2024-02-26T11:38:23;14.70;1.00
10231;DHT22;62604;49.432;8.680;2024-02-26T11:40:54;14.60;1.00
10231;DHT22;62604;49.432;8.680;2024-02-26T11:43:23;14.40;1.00
10231;DHT22;62604;49.432;8.680;2024-02-26T11:46:25;14.10;1.00
10231;DHT22;62604;49.432;8.680;2024-02-26T11:48:56;13.90;1.00
10231;DHT22;62604;49.432;8.680;2024-02-26T11:51:26;13.80;1.00
10231;DHT22;62604;49.432;8.680;2024-02-26T11:53:54;13.60;1.00
10231;DHT22;62604;49.432;8.680;2024-02-26T11:56:26;13.60;1.00
10231;DHT22;62604;49.432;8.680;2024-02-26T11:58:59;13.60;1.00
10231;DHT22;62604;49.432;8.680;2024-02-26T12:01:37;13.60;1.00
10231;DHT22;62604;49.432;8.680;2024-02-26T12:04:04;13.60;1.00
10231;DHT22;62604;49.432;8.680;2024-02-26T12:06:40;13.70;1.00
10231;DHT22;62604;49.432;8.680;2024-02-26T12:09:07;13.70;1.00
10231;DHT22;62604;49.432;8.680;2024-02-26T12:11:39;13.80;1.00
10231;DHT22;62604;49.432;8.680;2024-02-26T12:14:08;13.80;1.00
10231;DHT22;62604;49.432;8.680;2024-02-26T12:16:36;13.70;1.00
10231;DHT22;62604;49.432;8.680;2024-02-26T12:19:04;13.70;1.00
10231;DHT22;62604;49.432;8.680;2024-02-26T12:21:34;13.70;1.00
10231;DHT22;62604;49.432;8.680;2024-02-26T12:24:11;13.60;1.00
10231;DHT22;62604;49.432;8.680;2024-02-26T12:26:40;13.60;1.00
10231;DHT22;62604;49.432;8.680;2024-02-26T12:29:08;13.50;1.00
10231;DHT22;62604;49.432;8.680;2024-02-26T12:31:35;13.40;1.00
10231;DHT22;62604;49.432;8.680;2024-02-26T12:34:04;13.30;1.00
10231;DHT22;62604;49.432;8.680;2024-02-26T12:36:32;13.30;1.00
10231;DHT22;62604;49.432;8.680;2024-02-26T12:39:00;13.40;1.00
10231;DHT22;62604;49.432;8.680;2024-02-26T12:41:27;13.40;1.00
10231;DHT22;62604;49.432;8.680;2024-02-26T12:43:57;13.50;1.00
10231;DHT22;62604;49.432;8.680;2024-02-26T12:46:25;13.60;1.00
10231;DHT22;62604;49.432;8.680;2024-02-26T12:48:54;13.70;1.00
10231;DHT22;62604;49.432;8.680;2024-02-26T12:51:23;13.90;1.00
10231;DHT22;62604;49.432;8.680;2024-02-26T12:53:51;14.00;1.00
10231;DHT22;62604;49.432;8.680;2024-02-26T12:56:19;14.20;1.00
10231;DHT22;62604;49.432;8.680;2024-02-26T12:58:46;14.30;1.00
10231;DHT22;62604;49.432;8.680;2024-02-26T13:01:17;14.60;1.00
10231;DHT22;62604;49.432;8.680;2024-02-26T13:03:44;14.80;99.90
10231;DHT22;62604;49.432;8.680;2024-02-26T13:06:12;14.90;99.90
10231;DHT22;62604;49.432;8.680;2024-02-26T13:08:40;15.00;99.90
10231;DHT22;62604;49.432;8.680;2024-02-26T13:11:07;15.20;99.90
10231;DHT22;62604;49.432;8.680;2024-02-26T13:13:35;15.60;99.90
10231;DHT22;62604;49.432;8.680;2024-02-26T13:16:03;16.00;99.90
10231;DHT22;62604;49.432;8.680;2024-02-26T13:18:34;16.20;99.90
10231;DHT22;62604;49.432;8.680;2024-02-26T13:21:09;16.20;99.90
10231;DHT22;62604;49.432;8.680;2024-02-26T13:23:37;16.20;99.90
10231;DHT22;62604;49.432;8.680;2024-02-26T13:26:04;16.10;99.90
10231;DHT22;62604;49.432;8.680;2024-02-26T13:28:31;16.20;99.90
10231;DHT22;62604;49.432;8.680;2024-02-26T13:30:58;16.20;99.90
10231;DHT22;62604;49.432;8.680;2024-02-26T13:33:28;16.20;99.90
10231;DHT22;62604;49.432;8.680;2024-02-26T13:36:00;16.30;99.90
10231;DHT22;62604;49.432;8.680;2024-02-26T13:38:27;16.30;99.90
10231;DHT22;62604;49.432;8.680;2024-02-26T13:40:55;16.30;99.90
10231;DHT22;62604;49.432;8.680;2024-02-26T13:43:22;16.20;99.90
10231;DHT22;62604;49.432;8.680;2024-02-26T13:45:50;16.00;99.90
10231;DHT22;62604;49.432;8.680;2024-02-26T13:48:17;15.90;99.90
10231;DHT22;62604;49.432;8.680;2024-02-26T13:50:44;15.80;99.90
10231;DHT22;62604;49.432;8.680;2024-02-26T13:53:13;15.70;99.90
10231;DHT22;62604;49.432;8.680;2024-02-26T13:55:41;15.70;99.90
10231;DHT22;62604;49.432;8.680;2024-02-26T13:58:11;15.80;99.90
10231;DHT22;62604;49.432;8.680;2024-02-26T14:00:39;15.80;99.90
10231;DHT22;62604;49.432;8.680;2024-02-26T14:03:07;15.70;99.90
10231;DHT22;62604;49.432;8.680;2024-02-26T14:05:36;15.60;99.90
10231;DHT22;62604;49.432;8.680;2024-02-26T14:08:04;15.50;99.90
10231;DHT22;62604;49.432;8.680;2024-02-26T14:10:33;15.30;99.90
10231;DHT22;62604;49.432;8.680;2024-02-26T14:13:00;15.20;99.90
10231;DHT22;62604;49.432;8.680;2024-02-26T14:15:28;15.10;99.90
10231;DHT22;62604;49.432;8.680;2024-02-26T14:17:57;15.00;99.90
10231;DHT22;62604;49.432;8.680;2024-02-26T14:20:24;15.00;99.90
10231;DHT22;62604;49.432;8.680;2024-02-26T14:22:53;15.00;99.90
10231;DHT22;62604;49.432;8.680;2024-02-26T14:25:20;14.90;99.90
10231;DHT22;62604;49.432;8.680;2024-02-26T14:27:49;14.80;99.90
10231;DHT22;62604;49.432;8.680;2024-02-26T14:30:16;14.70;99.90
10231;DHT22;62604;49.432;8.680;2024-02-26T14:32:44;14.70;99.90
10231;DHT22;62604;49.432;8.680;2024-02-26T14:35:19;14.70;99.90
10231;DHT22;62604;49.432;8.680;2024-02-26T14:37:46;14.70;99.90
10231;DHT22;62604;49.432;8.680;2024-02-26T14:40:17;14.70;99.90
10231;DHT22;62604;49.432;8.680;2024-02-26T14:42:44;14.70;99.90
10231;DHT22;62604;49.432;8.680;2024-02-26T14:45:13;14.70;99.90
10231;DHT22;62604;49.432;8.680;2024-02-26T14:47:41;14.70;99.90
10231;DHT22;62604;49.432;8.680;2024-02-26T14:50:08;14.70;99.90
10231;DHT22;62604;49.432;8.680;2024-02-26T14:52:39;14.70;99.90
10231;DHT22;62604;49.432;8.680;2024-02-26T14:55:07;14.80;99.90
10231;DHT22;62604;49.432;8.680;2024-02-26T14:57:34;14.80;99.90
10231;DHT22;62604;49.432;8.680;2024-02-26T15:00:01;14.80;99.90
10231;DHT22;62604;49.432;8.680;2024-02-26T15:02:32;14.80;99.90
10231;DHT22;62604;49.432;8.680;2024-02-26T15:04:59;14.80;99.90
10231;DHT22;62604;49.432;8.680;2024-02-26T15:07:27;14.80;99.90
10231;DHT22;62604;49.432;8.680;2024-02-26T15:09:54;14.80;99.90
10231;DHT22;62604;49.432;8.680;2024-02-26T15:12:25;14.80;99.90
10231;DHT22;62604;49.432;8.680;2024-02-26T15:14:53;14.80;99.90
10231;DHT22;62604;49.432;8.680;2024-02-26T15:17:20;14.80;99.90
10231;DHT22;62604;49.432;8.680;2024-02-26T15:19:49;14.60;99.90
10231;DHT22;62604;49.432;8.680;2024-02-26T15:22:16;14.60;99.90
10231;DHT22;62604;49.432;8.680;2024-02-26T15:24:44;14.50;99.90
10231;DHT22;62604;49.432;8.680;2024-02-26T15:27:12;14.50;99.90
10231;DHT22;62604;49.432;8.680;2024-02-26T15:29:40;14.40;99.90
10231;DHT22;62604;49.432;8.680;2024-02-26T15:32:07;14.40;99.90
10231;DHT22;62604;49.432;8.680;2024-02-26T15:34:35;14.40;99.90
10231;DHT22;62604;49.432;8.680;2024-02-26T15:37:04;14.40;99.90
10231;DHT22;62604;49.432;8.680;2024-02-26T15:39:31;14.30;99.90
10231;DHT22;62604;49.432;8.680;2024-02-26T15:41:59;14.30;99.90
10231;DHT22;62604;49.432;8.680;2024-02-26T15:44:28;14.30;99.90
10231;DHT22;62604;49.432;8.680;2024-02-26T15:46:55;14.30;99.90
10231;DHT22;62604;49.432;8.680;2024-02-26T15:49:22;14.20;99.90
10231;DHT22;62604;49.432;8.680;2024-02-26T15:51:49;14.20;99.90
10231;DHT22;62604;49.432;8.680;2024-02-26T15:54:18;14.10;99.90
10231;DHT22;62604;49.432;8.680;2024-02-26T15:56:45;14.10;99.90
10231;DHT22;62604;49.432;8.680;2024-02-26T15:59:13;14.10;99.90